sensor_id;sensor_type;location;lat;lon;timestamp;temperature;humidity
2565;DHT22;1292;48.020;7.822;2022-08-05T05:47:42;24.20;99.90
2565;DHT22;1292;48.020;7.822;2022-08-05T05:50:12;24.40;99.90
2565;DHT22;1292;48.020;7.822;2022-08-05T05:52:39;24.40;99.90
2565;DHT22;1292;48.020;7.822;2022-08-05T05:55:09;24.40;99.90
2565;DHT22;1292;48.020;7.822;2022-08-05T05:57:37;24.50;99.90
2565;DHT22;1292;48.020;7.822;2022-08-05T06:00:05;24.60;99.90
2565;DHT22;1292;48.020;7.822;2022-08-05T06:02:32;24.60;99.90
2565;DHT22;1292;48.020;7.822;2022-08-05T06:05:01;24.60;99.90
2565;DHT22;1292;48.020;7.822;2022-08-05T06:07:27;24.70;99.90
2565;DHT22;1292;48.020;7.822;2022-08-05T06:09:54;24.80;99.90
2565;DHT22;1292;48.020;7.822;2022-08-05T06:12:21;24.90;99.90
2565;DHT22;1292;48.020;7.822;2022-08-05T06:14:48;25.00;99.90
2565;DHT22;1292;48.020;7.822;2022-08-05T06:17:15;25.00;99.90
2565;DHT22;1292;48.020;7.822;2022-08-05T06:19:41;25.10;99.90
2565;DHT22;1292;48.020;7.822;2022-08-05T06:22:10;25.20;99.90
2565;DHT22;1292;48.020;7.822;2022-08-05T06:24:41;25.30;99.90
2565;DHT22;1292;48.020;7.822;2022-08-05T06:27:08;25.40;99.90
2565;DHT22;1292;48.020;7.822;2022-08-05T06:29:34;25.50;99.90
2565;DHT22;1292;48.020;7.822;2022-08-05T06:32:01;25.60;99.90
2565;DHT22;1292;48.020;7.822;2022-08-05T06:34:28;25.60;99.90
2565;DHT22;1292;48.020;7.822;2022-08-05T06:36:55;25.60;99.90
2565;DHT22;1292;48.020;7.822;2022-08-05T06:39:23;25.70;99.90
2565;DHT22;1292;48.020;7.822;2022-08-05T06:41:50;25.70;99.90
2565;DHT22;1292;48.020;7.822;2022-08-05T06:44:17;25.80;99.90
2565;DHT22;1292;48.020;7.822;2022-08-05T06:46:43;25.90;99.90
2565;DHT22;1292;48.020;7.822;2022-08-05T06:49:10;26.00;99.90
2565;DHT22;1292;48.020;7.822;2022-08-05T06:51:37;26.00;99.90
2565;DHT22;1292;48.020;7.822;2022-08-05T06:54:04;26.00;99.90
2565;DHT22;1292;48.020;7.822;2022-08-05T06:56:32;25.90;99.90
2565;DHT22;1292;48.020;7.822;2022-08-05T06:58:59;25.90;99.90
2565;DHT22;1292;48.020;7.822;2022-08-05T07:01:26;25.90;99.90
2565;DHT22;1292;48.020;7.822;2022-08-05T07:03:52;26.00;99.90
2565;DHT22;1292;48.020;7.822;2022-08-05T07:06:19;26.00;99.90
2565;DHT22;1292;48.020;7.822;2022-08-05T07:08:48;26.00;99.90
2565;DHT22;1292;48.020;7.822;2022-08-05T07:11:15;26.10;99.90
2565;DHT22;1292;48.020;7.822;2022-08-05T07:13:44;26.10;99.90
2565;DHT22;1292;48.020;7.822;2022-08-05T07:16:28;26.10;99.90
2565;DHT22;1292;48.020;7.822;2022-08-05T07:19:13;26.10;99.90
2565;DHT22;1292;48.020;7.822;2022-08-05T07:21:39;26.10;99.90
2565;DHT22;1292;48.020;7.822;2022-08-05T07:24:07;26.00;99.90
2565;DHT22;1292;48.020;7.822;2022-08-05T07:26:34;26.00;99.90
2565;DHT22;1292;48.020;7.822;2022-08-05T07:29:02;26.00;99.90
2565;DHT22;1292;48.020;7.822;2022-08-05T07:31:29;26.10;99.90
2565;DHT22;1292;48.020;7.822;2022-08-05T07:33:56;26.20;99.90
2565;DHT22;1292;48.020;7.822;2022-08-05T07:36:22;26.30;99.90
2565;DHT22;1292;48.020;7.822;2022-08-05T07:38:50;26.40;99.90
2565;DHT22;1292;48.020;7.822;2022-08-05T07:41:18;26.50;99.90
2565;DHT22;1292;48.020;7.822;2022-08-05T07:43:46;26.60;99.90
2565;DHT22;1292;48.020;7.822;2022-08-05T07:46:14;26.70;99.90
2565;DHT22;1292;48.020;7.822;2022-08-05T07:48:41;26.70;99.90
2565;DHT22;1292;48.020;7.822;2022-08-05T07:51:08;26.80;99.90
2565;DHT22;1292;48.020;7.822;2022-08-05T07:53:34;26.80;99.90
2565;DHT22;1292;48.020;7.822;2022-08-05T07:56:02;26.90;99.90
2565;DHT22;1292;48.020;7.822;2022-08-05T07:58:29;27.00;99.90
2565;DHT22;1292;48.020;7.822;2022-08-05T08:00:56;27.10;99.90
2565;DHT22;1292;48.020;7.822;2022-08-05T08:03:25;27.20;99.90
2565;DHT22;1292;48.020;7.822;2022-08-05T08:05:51;27.20;99.90
2565;DHT22;1292;48.020;7.822;2022-08-05T08:08:19;27.30;99.90
2565;DHT22;1292;48.020;7.822;2022-08-05T08:10:46;27.30;99.90
2565;DHT22;1292;48.020;7.822;2022-08-05T08:13:13;27.40;99.90
2565;DHT22;1292;48.020;7.822;2022-08-05T08:15:40;27.40;99.90
2565;DHT22;1292;48.020;7.822;2022-08-05T08:18:07;27.40;99.90
2565;DHT22;1292;48.020;7.822;2022-08-05T08:20:35;27.50;99.90
2565;DHT22;1292;48.020;7.822;2022-08-05T08:23:02;27.60;99.90
2565;DHT22;1292;48.020;7.822;2022-08-05T08:25:29;27.60;99.90
2565;DHT22;1292;48.020;7.822;2022-08-05T08:27:57;27.70;99.90
2565;DHT22;1292;48.020;7.822;2022-08-05T08:30:26;27.80;99.90
2565;DHT22;1292;48.020;7.822;2022-08-05T08:32:52;27.90;99.90
2565;DHT22;1292;48.020;7.822;2022-08-05T08:35:19;27.90;99.90
2565;DHT22;1292;48.020;7.822;2022-08-05T08:37:47;28.00;99.90
2565;DHT22;1292;48.020;7.822;2022-08-05T08:40:14;28.10;99.90
2565;DHT22;1292;48.020;7.822;2022-08-05T08:42:45;28.20;99.90
2565;DHT22;1292;48.020;7.822;2022-08-05T08:45:14;28.20;99.20
2565;DHT22;1292;48.020;7.822;2022-08-05T08:47:43;28.20;99.50
2565;DHT22;1292;48.020;7.822;2022-08-05T08:50:12;28.40;99.30
2565;DHT22;1292;48.020;7.822;2022-08-05T08:52:41;28.50;99.20
2565;DHT22;1292;48.020;7.822;2022-08-05T08:55:15;28.60;97.80
2565;DHT22;1292;48.020;7.822;2022-08-05T08:57:42;28.60;97.60
2565;DHT22;1292;48.020;7.822;2022-08-05T09:00:10;28.70;97.90
2565;DHT22;1292;48.020;7.822;2022-08-05T09:02:37;28.90;98.20
2565;DHT22;1292;48.020;7.822;2022-08-05T09:05:04;29.50;97.70
2565;DHT22;1292;48.020;7.822;2022-08-05T09:07:31;30.10;95.70
2565;DHT22;1292;48.020;7.822;2022-08-05T09:09:58;30.60;95.20
2565;DHT22;1292;48.020;7.822;2022-08-05T09:12:26;30.90;94.20
2565;DHT22;1292;48.020;7.822;2022-08-05T09:14:53;31.40;94.40
2565;DHT22;1292;48.020;7.822;2022-08-05T09:17:20;31.90;94.80
2565;DHT22;1292;48.020;7.822;2022-08-05T09:19:47;31.80;93.10
2565;DHT22;1292;48.020;7.822;2022-08-05T09:22:14;31.80;92.40
2565;DHT22;1292;48.020;7.822;2022-08-05T09:24:41;31.70;92.50
2565;DHT22;1292;48.020;7.822;2022-08-05T09:27:09;31.90;92.70
2565;DHT22;1292;48.020;7.822;2022-08-05T09:29:39;32.00;92.40
2565;DHT22;1292;48.020;7.822;2022-08-05T09:32:10;32.30;92.30
2565;DHT22;1292;48.020;7.822;2022-08-05T09:34:47;32.60;92.00
2565;DHT22;1292;48.020;7.822;2022-08-05T09:37:18;32.20;92.30
2565;DHT22;1292;48.020;7.822;2022-08-05T09:39:45;32.20;92.50
2565;DHT22;1292;48.020;7.822;2022-08-05T09:42:13;32.40;91.70
2565;DHT22;1292;48.020;7.822;2022-08-05T09:44:47;32.70;92.20
2565;DHT22;1292;48.020;7.822;2022-08-05T09:47:16;32.80;90.90
2565;DHT22;1292;48.020;7.822;2022-08-05T09:49:45;32.50;90.70
2565;DHT22;1292;48.020;7.822;2022-08-05T09:52:23;32.20;91.10
2565;DHT22;1292;48.020;7.822;2022-08-05T09:54:55;31.90;91.10
2565;DHT22;1292;48.020;7.822;2022-08-05T09:57:34;31.80;91.50
2565;DHT22;1292;48.020;7.822;2022-08-05T10:00:06;31.60;91.70
2565;DHT22;1292;48.020;7.822;2022-08-05T10:02:36;31.50;92.00
2565;DHT22;1292;48.020;7.822;2022-08-05T10:05:09;31.40;91.30
2565;DHT22;1292;48.020;7.822;2022-08-05T10:07:48;31.20;91.70
2565;DHT22;1292;48.020;7.822;2022-08-05T10:10:16;31.20;91.90
2565;DHT22;1292;48.020;7.822;2022-08-05T10:12:45;31.10;92.40
2565;DHT22;1292;48.020;7.822;2022-08-05T10:15:23;31.10;91.80
2565;DHT22;1292;48.020;7.822;2022-08-05T10:18:07;31.10;92.40
2565;DHT22;1292;48.020;7.822;2022-08-05T10:20:38;31.20;91.80
2565;DHT22;1292;48.020;7.822;2022-08-05T10:23:06;31.10;92.20
2565;DHT22;1292;48.020;7.822;2022-08-05T10:25:33;31.10;91.60
2565;DHT22;1292;48.020;7.822;2022-08-05T10:28:00;31.10;92.10
2565;DHT22;1292;48.020;7.822;2022-08-05T10:30:29;31.20;91.80
2565;DHT22;1292;48.020;7.822;2022-08-05T10:32:57;31.30;92.60
2565;DHT22;1292;48.020;7.822;2022-08-05T10:35:24;31.40;92.20
2565;DHT22;1292;48.020;7.822;2022-08-05T10:37:52;31.40;92.00
2565;DHT22;1292;48.020;7.822;2022-08-05T10:40:25;31.40;92.10
2565;DHT22;1292;48.020;7.822;2022-08-05T10:42:57;31.60;92.00
2565;DHT22;1292;48.020;7.822;2022-08-05T10:45:25;31.70;92.10
2565;DHT22;1292;48.020;7.822;2022-08-05T10:47:54;31.80;91.80
2565;DHT22;1292;48.020;7.822;2022-08-05T10:50:20;31.80;91.30
2565;DHT22;1292;48.020;7.822;2022-08-05T10:52:49;32.00;91.60
2565;DHT22;1292;48.020;7.822;2022-08-05T10:55:21;32.00;91.30
2565;DHT22;1292;48.020;7.822;2022-08-05T10:58:05;32.20;91.40
2565;DHT22;1292;48.020;7.822;2022-08-05T11:00:33;32.20;90.80
2565;DHT22;1292;48.020;7.822;2022-08-05T11:03:11;32.20;91.00
2565;DHT22;1292;48.020;7.822;2022-08-05T11:05:39;32.20;91.30
2565;DHT22;1292;48.020;7.822;2022-08-05T11:08:07;32.20;91.20
2565;DHT22;1292;48.020;7.822;2022-08-05T11:10:36;32.20;91.00
2565;DHT22;1292;48.020;7.822;2022-08-05T11:13:03;32.40;90.90
2565;DHT22;1292;48.020;7.822;2022-08-05T11:15:32;32.30;91.00
2565;DHT22;1292;48.020;7.822;2022-08-05T11:18:08;32.50;90.50
2565;DHT22;1292;48.020;7.822;2022-08-05T11:20:49;32.50;90.30
2565;DHT22;1292;48.020;7.822;2022-08-05T11:23:31;32.40;91.00
2565;DHT22;1292;48.020;7.822;2022-08-05T11:26:09;32.10;91.40
2565;DHT22;1292;48.020;7.822;2022-08-05T11:28:39;32.00;92.90
2565;DHT22;1292;48.020;7.822;2022-08-05T11:31:28;32.10;92.90
2565;DHT22;1292;48.020;7.822;2022-08-05T11:33:58;32.20;92.80
2565;DHT22;1292;48.020;7.822;2022-08-05T11:36:44;32.40;92.90
2565;DHT22;1292;48.020;7.822;2022-08-05T11:39:13;32.50;92.50
2565;DHT22;1292;48.020;7.822;2022-08-05T11:41:41;32.40;92.90
2565;DHT22;1292;48.020;7.822;2022-08-05T11:44:09;32.20;92.50
2565;DHT22;1292;48.020;7.822;2022-08-05T11:46:39;32.20;92.70
2565;DHT22;1292;48.020;7.822;2022-08-05T11:49:09;32.10;93.10
2565;DHT22;1292;48.020;7.822;2022-08-05T11:51:40;32.10;93.00
2565;DHT22;1292;48.020;7.822;2022-08-05T11:54:08;32.10;93.40
2565;DHT22;1292;48.020;7.822;2022-08-05T11:56:43;31.90;93.40
2565;DHT22;1292;48.020;7.822;2022-08-05T11:59:15;31.90;93.30
2565;DHT22;1292;48.020;7.822;2022-08-05T12:01:56;31.90;93.40
2565;DHT22;1292;48.020;7.822;2022-08-05T12:04:24;31.80;93.20
2565;DHT22;1292;48.020;7.822;2022-08-05T12:06:53;31.70;93.50
2565;DHT22;1292;48.020;7.822;2022-08-05T12:09:24;32.00;93.80
2565;DHT22;1292;48.020;7.822;2022-08-05T12:11:52;31.90;92.80
2565;DHT22;1292;48.020;7.822;2022-08-05T12:14:19;31.80;92.40
2565;DHT22;1292;48.020;7.822;2022-08-05T12:16:46;31.90;93.00
2565;DHT22;1292;48.020;7.822;2022-08-05T12:19:14;31.80;92.90
2565;DHT22;1292;48.020;7.822;2022-08-05T12:21:44;31.70;93.50
2565;DHT22;1292;48.020;7.822;2022-08-05T12:24:14;31.70;92.70
2565;DHT22;1292;48.020;7.822;2022-08-05T12:26:44;31.60;93.40
2565;DHT22;1292;48.020;7.822;2022-08-05T12:29:12;31.70;93.00
2565;DHT22;1292;48.020;7.822;2022-08-05T12:31:43;31.80;93.30
2565;DHT22;1292;48.020;7.822;2022-08-05T12:34:10;31.90;92.70
2565;DHT22;1292;48.020;7.822;2022-08-05T12:36:37;32.10;92.70
2565;DHT22;1292;48.020;7.822;2022-08-05T12:39:05;32.10;92.70
2565;DHT22;1292;48.020;7.822;2022-08-05T12:41:34;32.20;92.20
2565;DHT22;1292;48.020;7.822;2022-08-05T12:44:03;32.30;93.00
2565;DHT22;1292;48.020;7.822;2022-08-05T12:46:33;32.50;93.70
2565;DHT22;1292;48.020;7.822;2022-08-05T12:49:03;32.60;91.60
2565;DHT22;1292;48.020;7.822;2022-08-05T12:51:30;32.60;92.40
2565;DHT22;1292;48.020;7.822;2022-08-05T12:53:58;32.70;92.10
2565;DHT22;1292;48.020;7.822;2022-08-05T12:56:27;32.70;91.70
2565;DHT22;1292;48.020;7.822;2022-08-05T12:59:14;32.70;91.20
2565;DHT22;1292;48.020;7.822;2022-08-05T13:01:43;32.90;92.00
2565;DHT22;1292;48.020;7.822;2022-08-05T13:04:10;32.90;91.20
2565;DHT22;1292;48.020;7.822;2022-08-05T13:06:39;32.70;91.00
2565;DHT22;1292;48.020;7.822;2022-08-05T13:09:07;32.80;91.30
2565;DHT22;1292;48.020;7.822;2022-08-05T13:11:38;32.80;92.00
2565;DHT22;1292;48.020;7.822;2022-08-05T13:14:18;32.70;92.20
2565;DHT22;1292;48.020;7.822;2022-08-05T13:16:47;32.90;92.10
2565;DHT22;1292;48.020;7.822;2022-08-05T13:19:15;33.20;92.00
2565;DHT22;1292;48.020;7.822;2022-08-05T13:21:44;33.40;91.20
2565;DHT22;1292;48.020;7.822;2022-08-05T13:24:11;33.40;91.40
2565;DHT22;1292;48.020;7.822;2022-08-05T13:26:39;33.60;92.40
2565;DHT22;1292;48.020;7.822;2022-08-05T13:29:05;33.80;91.10
2565;DHT22;1292;48.020;7.822;2022-08-05T13:31:34;33.80;91.30
2565;DHT22;1292;48.020;7.822;2022-08-05T13:34:00;33.90;91.00
2565;DHT22;1292;48.020;7.822;2022-08-05T13:36:27;33.80;90.50
2565;DHT22;1292;48.020;7.822;2022-08-05T13:38:54;33.90;90.90
2565;DHT22;1292;48.020;7.822;2022-08-05T13:41:21;34.00;90.30
2565;DHT22;1292;48.020;7.822;2022-08-05T13:43:47;33.90;90.00
2565;DHT22;1292;48.020;7.822;2022-08-05T13:46:15;33.70;90.90
2565;DHT22;1292;48.020;7.822;2022-08-05T13:48:45;33.70;90.40
2565;DHT22;1292;48.020;7.822;2022-08-05T13:51:12;33.80;90.40
2565;DHT22;1292;48.020;7.822;2022-08-05T13:53:40;33.70;90.70
2565;DHT22;1292;48.020;7.822;2022-08-05T13:56:07;33.70;90.90
2565;DHT22;1292;48.020;7.822;2022-08-05T13:58:35;33.70;90.70
2565;DHT22;1292;48.020;7.822;2022-08-05T14:01:01;33.80;90.80
2565;DHT22;1292;48.020;7.822;2022-08-05T14:03:29;33.80;90.30
2565;DHT22;1292;48.020;7.822;2022-08-05T14:05:57;33.60;90.50
2565;DHT22;1292;48.020;7.822;2022-08-05T14:08:24;33.60;90.30
2565;DHT22;1292;48.020;7.822;2022-08-05T14:10:51;33.40;90.10
2565;DHT22;1292;48.020;7.822;2022-08-05T14:13:18;33.40;90.90
2565;DHT22;1292;48.020;7.822;2022-08-05T14:15:45;33.50;90.70
2565;DHT22;1292;48.020;7.822;2022-08-05T14:18:12;33.60;90.80
2565;DHT22;1292;48.020;7.822;2022-08-05T14:20:39;33.50;90.30
2565;DHT22;1292;48.020;7.822;2022-08-05T14:23:07;33.30;90.50
2565;DHT22;1292;48.020;7.822;2022-08-05T14:25:34;33.20;90.10
2565;DHT22;1292;48.020;7.822;2022-08-05T14:28:00;33.20;90.40
2565;DHT22;1292;48.020;7.822;2022-08-05T14:30:27;33.30;90.40
2565;DHT22;1292;48.020;7.822;2022-08-05T14:32:54;33.30;89.80
2565;DHT22;1292;48.020;7.822;2022-08-05T14:35:21;33.10;90.30
2565;DHT22;1292;48.020;7.822;2022-08-05T14:37:48;32.80;91.80
2565;DHT22;1292;48.020;7.822;2022-08-05T14:40:16;32.70;92.00
2565;DHT22;1292;48.020;7.822;2022-08-05T14:42:43;32.50;93.00
2565;DHT22;1292;48.020;7.822;2022-08-05T14:45:10;32.60;92.70
2565;DHT22;1292;48.020;7.822;2022-08-05T14:47:37;32.60;93.00
2565;DHT22;1292;48.020;7.822;2022-08-05T14:50:04;32.50;93.10
2565;DHT22;1292;48.020;7.822;2022-08-05T14:52:31;32.20;93.50
2565;DHT22;1292;48.020;7.822;2022-08-05T14:54:58;32.20;93.60
2565;DHT22;1292;48.020;7.822;2022-08-05T14:57:26;32.10;93.60
2565;DHT22;1292;48.020;7.822;2022-08-05T14:59:53;32.00;93.80
2565;DHT22;1292;48.020;7.822;2022-08-05T15:02:20;31.90;94.10
2565;DHT22;1292;48.020;7.822;2022-08-05T15:04:47;31.60;94.20
2565;DHT22;1292;48.020;7.822;2022-08-05T15:07:13;31.30;95.20
2565;DHT22;1292;48.020;7.822;2022-08-05T15:09:41;31.00;95.20
2565;DHT22;1292;48.020;7.822;2022-08-05T15:12:09;30.70;95.50
2565;DHT22;1292;48.020;7.822;2022-08-05T15:14:37;30.60;95.90
2565;DHT22;1292;48.020;7.822;2022-08-05T15:17:04;30.50;96.10
2565;DHT22;1292;48.020;7.822;2022-08-05T15:19:31;30.10;96.60
2565;DHT22;1292;48.020;7.822;2022-08-05T15:21:58;30.00;97.20
2565;DHT22;1292;48.020;7.822;2022-08-05T15:24:25;30.00;97.40
2565;DHT22;1292;48.020;7.822;2022-08-05T15:26:52;29.80;97.80
2565;DHT22;1292;48.020;7.822;2022-08-05T15:29:19;29.60;98.00
2565;DHT22;1292;48.020;7.822;2022-08-05T15:31:47;29.60;98.20
2565;DHT22;1292;48.020;7.822;2022-08-05T15:34:13;29.50;98.40
2565;DHT22;1292;48.020;7.822;2022-08-05T15:36:40;29.50;99.00
2565;DHT22;1292;48.020;7.822;2022-08-05T15:39:07;29.50;98.70
2565;DHT22;1292;48.020;7.822;2022-08-05T15:41:34;29.60;98.60
2565;DHT22;1292;48.020;7.822;2022-08-05T15:44:01;29.50;98.90
2565;DHT22;1292;48.020;7.822;2022-08-05T15:46:28;29.60;99.30
2565;DHT22;1292;48.020;7.822;2022-08-05T15:48:56;29.70;98.80
2565;DHT22;1292;48.020;7.822;2022-08-05T15:51:24;29.60;99.20
2565;DHT22;1292;48.020;7.822;2022-08-05T15:53:51;29.50;99.10
2565;DHT22;1292;48.020;7.822;2022-08-05T15:56:19;29.40;99.30
2565;DHT22;1292;48.020;7.822;2022-08-05T15:58:45;29.40;99.30
2565;DHT22;1292;48.020;7.822;2022-08-05T16:01:13;29.20;99.50
2565;DHT22;1292;48.020;7.822;2022-08-05T16:03:40;29.00;99.60
2565;DHT22;1292;48.020;7.822;2022-08-05T16:06:09;28.80;99.90
2565;DHT22;1292;48.020;7.822;2022-08-05T16:08:36;28.90;99.80
2565;DHT22;1292;48.020;7.822;2022-08-05T16:11:03;28.80;99.70
2565;DHT22;1292;48.020;7.822;2022-08-05T16:13:30;28.60;99.80
2565;DHT22;1292;48.020;7.822;2022-08-05T16:15:57;28.30;99.90
2565;DHT22;1292;48.020;7.822;2022-08-05T16:18:23;28.30;99.90
2565;DHT22;1292;48.020;7.822;2022-08-05T16:20:50;28.20;99.90
2565;DHT22;1292;48.020;7.822;2022-08-05T16:23:18;28.00;99.90
2565;DHT22;1292;48.020;7.822;2022-08-05T16:25:45;28.00;99.90
2565;DHT22;1292;48.020;7.822;2022-08-05T16:28:12;27.80;99.90
2565;DHT22;1292;48.020;7.822;2022-08-05T16:30:39;27.80;99.90
2565;DHT22;1292;48.020;7.822;2022-08-05T16:33:05;27.70;99.90
2565;DHT22;1292;48.020;7.822;2022-08-05T16:35:32;27.80;99.90
2565;DHT22;1292;48.020;7.822;2022-08-05T16:37:59;27.70;99.90
2565;DHT22;1292;48.020;7.822;2022-08-05T16:40:28;27.70;99.90
2565;DHT22;1292;48.020;7.822;2022-08-05T16:42:55;27.70;99.90
2565;DHT22;1292;48.020;7.822;2022-08-05T16:45:21;27.60;99.90
2565;DHT22;1292;48.020;7.822;2022-08-05T16:47:48;27.50;99.90
2565;DHT22;1292;48.020;7.822;2022-08-05T16:50:15;27.60;99.90
2565;DHT22;1292;48.020;7.822;2022-08-05T16:52:42;27.60;99.90
2565;DHT22;1292;48.020;7.822;2022-08-05T16:55:09;27.50;99.90
2565;DHT22;1292;48.020;7.822;2022-08-05T16:57:37;27.50;99.90
2565;DHT22;1292;48.020;7.822;2022-08-05T17:00:05;27.50;99.90
2565;DHT22;1292;48.020;7.822;2022-08-05T17:02:33;27.50;99.90
2565;DHT22;1292;48.020;7.822;2022-08-05T17:05:00;27.40;99.90
2565;DHT22;1292;48.020;7.822;2022-08-05T17:07:27;27.40;99.90
2565;DHT22;1292;48.020;7.822;2022-08-05T17:09:54;27.40;99.90
2565;DHT22;1292;48.020;7.822;2022-08-05T17:12:20;27.30;99.90
2565;DHT22;1292;48.020;7.822;2022-08-05T17:14:48;27.20;99.90
2565;DHT22;1292;48.020;7.822;2022-08-05T17:17:15;27.20;99.90
2565;DHT22;1292;48.020;7.822;2022-08-05T17:19:42;27.10;99.90
2565;DHT22;1292;48.020;7.822;2022-08-05T17:22:10;27.00;99.90
2565;DHT22;1292;48.020;7.822;2022-08-05T17:24:37;27.00;99.90
2565;DHT22;1292;48.020;7.822;2022-08-05T17:27:04;27.00;99.90
2565;DHT22;1292;48.020;7.822;2022-08-05T17:29:30;27.10;99.90
2565;DHT22;1292;48.020;7.822;2022-08-05T17:31:59;27.00;99.90
2565;DHT22;1292;48.020;7.822;2022-08-05T17:34:25;26.90;99.90
2565;DHT22;1292;48.020;7.822;2022-08-05T17:36:52;26.80;99.90
2565;DHT22;1292;48.020;7.822;2022-08-05T17:39:19;26.80;99.90
2565;DHT22;1292;48.020;7.822;2022-08-05T17:41:46;26.80;99.90
2565;DHT22;1292;48.020;7.822;2022-08-05T17:44:13;26.80;99.90
2565;DHT22;1292;48.020;7.822;2022-08-05T17:46:39;26.90;99.90
2565;DHT22;1292;48.020;7.822;2022-08-05T17:49:07;26.90;99.90
2565;DHT22;1292;48.020;7.822;2022-08-05T17:51:34;26.80;99.90
2565;DHT22;1292;48.020;7.822;2022-08-05T17:54:01;26.80;99.90
2565;DHT22;1292;48.020;7.822;2022-08-05T17:56:28;26.80;99.90
2565;DHT22;1292;48.020;7.822;2022-08-05T17:58:55;26.80;99.90
2565;DHT22;1292;48.020;7.822;2022-08-05T18:01:22;26.80;99.90
2565;DHT22;1292;48.020;7.822;2022-08-05T18:03:49;26.70;99.90
2565;DHT22;1292;48.020;7.822;2022-08-05T18:06:17;26.70;99.90
2565;DHT22;1292;48.020;7.822;2022-08-05T18:08:44;26.80;99.90
2565;DHT22;1292;48.020;7.822;2022-08-05T18:11:12;26.70;99.90
2565;DHT22;1292;48.020;7.822;2022-08-05T18:13:40;26.70;99.90
2565;DHT22;1292;48.020;7.822;2022-08-05T18:16:07;26.70;99.90
2565;DHT22;1292;48.020;7.822;2022-08-05T18:18:34;26.60;99.90
2565;DHT22;1292;48.020;7.822;2022-08-05T18:21:01;26.70;99.90
2565;DHT22;1292;48.020;7.822;2022-08-05T18:23:30;26.70;99.90
2565;DHT22;1292;48.020;7.822;2022-08-05T18:25:57;26.70;99.90
2565;DHT22;1292;48.020;7.822;2022-08-05T18:28:23;26.70;99.90
2565;DHT22;1292;48.020;7.822;2022-08-05T18:30:50;26.60;99.90
2565;DHT22;1292;48.020;7.822;2022-08-05T18:33:17;26.60;99.90
2565;DHT22;1292;48.020;7.822;2022-08-05T18:35:44;26.60;99.90
2565;DHT22;1292;48.020;7.822;2022-08-05T18:38:11;26.70;99.90
2565;DHT22;1292;48.020;7.822;2022-08-05T18:40:40;26.60;99.90
2565;DHT22;1292;48.020;7.822;2022-08-05T18:43:07;26.70;99.90
2565;DHT22;1292;48.020;7.822;2022-08-05T18:45:33;26.80;99.90
2565;DHT22;1292;48.020;7.822;2022-08-05T18:48:00;26.80;99.90
2565;DHT22;1292;48.020;7.822;2022-08-05T18:50:27;26.80;99.90
2565;DHT22;1292;48.020;7.822;2022-08-05T18:53:11;26.80;99.90
2565;DHT22;1292;48.020;7.822;2022-08-05T18:55:39;26.80;99.90
2565;DHT22;1292;48.020;7.822;2022-08-05T18:58:06;26.80;99.90
2565;DHT22;1292;48.020;7.822;2022-08-05T19:00:33;26.80;99.90
2565;DHT22;1292;48.020;7.822;2022-08-05T19:03:00;26.70;99.90
2565;DHT22;1292;48.020;7.822;2022-08-05T19:05:27;26.70;99.90
2565;DHT22;1292;48.020;7.822;2022-08-05T19:07:55;26.60;99.90
2565;DHT22;1292;48.020;7.822;2022-08-05T19:10:24;26.50;99.90
2565;DHT22;1292;48.020;7.822;2022-08-05T19:12:52;26.50;99.90
2565;DHT22;1292;48.020;7.822;2022-08-05T19:15:19;26.40;99.90
2565;DHT22;1292;48.020;7.822;2022-08-05T19:17:46;26.40;99.90
2565;DHT22;1292;48.020;7.822;2022-08-05T19:20:13;26.30;99.90
2565;DHT22;1292;48.020;7.822;2022-08-05T19:22:40;26.20;99.90
2565;DHT22;1292;48.020;7.822;2022-08-05T19:25:07;26.20;99.90
2565;DHT22;1292;48.020;7.822;2022-08-05T19:27:34;26.20;99.90
2565;DHT22;1292;48.020;7.822;2022-08-05T19:30:03;26.10;99.90
2565;DHT22;1292;48.020;7.822;2022-08-05T19:32:32;26.10;99.90
2565;DHT22;1292;48.020;7.822;2022-08-05T19:34:59;26.10;99.90
2565;DHT22;1292;48.020;7.822;2022-08-05T19:37:26;26.10;99.90
2565;DHT22;1292;48.020;7.822;2022-08-05T19:39:54;26.10;99.90
2565;DHT22;1292;48.020;7.822;2022-08-05T19:42:21;26.10;99.90
2565;DHT22;1292;48.020;7.822;2022-08-05T19:44:47;26.10;99.90
2565;DHT22;1292;48.020;7.822;2022-08-05T19:47:16;26.00;99.90
2565;DHT22;1292;48.020;7.822;2022-08-05T19:49:42;25.90;99.90
2565;DHT22;1292;48.020;7.822;2022-08-05T19:52:09;25.90;99.90
2565;DHT22;1292;48.020;7.822;2022-08-05T19:54:36;25.90;99.90
2565;DHT22;1292;48.020;7.822;2022-08-05T19:57:04;25.90;99.90
2565;DHT22;1292;48.020;7.822;2022-08-05T19:59:32;25.90;99.90
2565;DHT22;1292;48.020;7.822;2022-08-05T20:01:59;25.90;99.90
2565;DHT22;1292;48.020;7.822;2022-08-05T20:04:28;25.80;99.90
2565;DHT22;1292;48.020;7.822;2022-08-05T20:06:55;25.80;99.90
2565;DHT22;1292;48.020;7.822;2022-08-05T20:09:22;25.80;99.90
2565;DHT22;1292;48.020;7.822;2022-08-05T20:11:49;25.80;99.90
2565;DHT22;1292;48.020;7.822;2022-08-05T20:14:15;25.80;99.90
2565;DHT22;1292;48.020;7.822;2022-08-05T20:16:44;25.70;99.90
2565;DHT22;1292;48.020;7.822;2022-08-05T20:19:11;25.60;99.90
2565;DHT22;1292;48.020;7.822;2022-08-05T20:21:39;25.60;99.90
2565;DHT22;1292;48.020;7.822;2022-08-05T20:24:06;25.60;99.90
2565;DHT22;1292;48.020;7.822;2022-08-05T20:26:33;25.70;99.90
2565;DHT22;1292;48.020;7.822;2022-08-05T20:29:00;25.70;99.90
2565;DHT22;1292;48.020;7.822;2022-08-05T20:31:28;25.70;99.90
2565;DHT22;1292;48.020;7.822;2022-08-05T20:33:55;25.50;99.90
2565;DHT22;1292;48.020;7.822;2022-08-05T20:36:22;25.30;99.90
2565;DHT22;1292;48.020;7.822;2022-08-05T20:38:51;25.00;99.90
2565;DHT22;1292;48.020;7.822;2022-08-05T20:41:18;24.90;99.90
2565;DHT22;1292;48.020;7.822;2022-08-05T20:43:45;24.80;99.90
2565;DHT22;1292;48.020;7.822;2022-08-05T20:46:12;24.60;99.90
2565;DHT22;1292;48.020;7.822;2022-08-05T20:48:40;24.60;99.90
2565;DHT22;1292;48.020;7.822;2022-08-05T20:51:07;24.60;99.90
2565;DHT22;1292;48.020;7.822;2022-08-05T20:53:34;24.50;99.90
2565;DHT22;1292;48.020;7.822;2022-08-05T20:56:02;24.50;99.90
2565;DHT22;1292;48.020;7.822;2022-08-05T20:58:29;24.40;99.90
